createdAt,value
2018-11-04T00:01:27.317Z,37.50
2018-11-04T00:04:01.538Z,40.57
2018-11-04T00:06:37.519Z,41.83
2018-11-04T00:09:13.090Z,36.57
2018-11-04T00:11:51.472Z,40.23
2018-11-04T00:14:28.011Z,35.70
2018-11-04T00:17:02.376Z,31.77
2018-11-04T00:19:38.614Z,34.90
2018-11-04T00:22:12.992Z,35.00
2018-11-04T00:24:52.119Z,34.13
2018-11-04T00:27:27.192Z,37.67
2018-11-04T00:30:01.248Z,35.17
2018-11-04T00:32:39.513Z,30.60
2018-11-04T00:35:17.556Z,34.93
2018-11-04T00:37:55.708Z,32.23
2018-11-04T00:40:29.634Z,34.87
2018-11-04T00:43:06.016Z,32.93
2018-11-04T00:45:40.378Z,32.47
2018-11-04T00:48:14.716Z,39.57
2018-11-04T00:50:55.034Z,39.13
2018-11-04T00:53:29.049Z,33.60
2018-11-04T00:56:04.252Z,38.37
2018-11-04T01:01:17.064Z,35.43
2018-11-04T01:03:51.052Z,33.50
2018-11-04T01:06:29.215Z,34.80
2018-11-04T01:09:07.375Z,39.87
2018-11-04T01:11:41.267Z,36.60
2018-11-04T01:14:19.414Z,40.20
2018-11-04T01:16:55.710Z,37.87
2018-11-04T01:19:36.283Z,34.07
2018-11-04T01:22:08.469Z,36.30
2018-11-04T01:24:43.291Z,41.03
2018-11-04T01:27:19.281Z,33.23
2018-11-04T01:29:57.436Z,35.57
2018-11-04T01:32:32.334Z,31.80
2018-11-04T01:35:13.049Z,37.73
2018-11-04T01:37:51.811Z,36.40
2018-11-04T01:40:29.912Z,33.47
2018-11-04T01:43:04.341Z,37.20
2018-11-04T01:45:36.761Z,32.07
2018-11-04T01:48:12.723Z,35.57
2018-11-04T01:50:46.709Z,37.83
2018-11-04T01:53:16.669Z,32.40
2018-11-04T01:55:51.004Z,36.07
2018-11-04T01:58:35.031Z,36.07
2018-11-04T02:01:10.046Z,38.80
2018-11-04T02:03:44.015Z,34.57
2018-11-04T02:06:18.292Z,29.40
2018-11-04T02:08:52.370Z,35.00
2018-11-04T02:11:30.760Z,39.20
2018-11-04T02:14:05.304Z,35.33
2018-11-04T02:16:40.688Z,32.13
2018-11-04T02:19:15.732Z,31.50
2018-11-04T02:21:50.041Z,33.03
2018-11-04T02:24:24.212Z,31.67
2018-11-04T02:26:59.057Z,38.77
2018-11-04T02:29:37.230Z,32.40
2018-11-04T02:32:11.401Z,36.80
2018-11-04T02:34:45.807Z,29.93
2018-11-04T02:37:21.048Z,31.53
2018-11-04T02:39:52.745Z,31.13
2018-11-04T02:42:31.055Z,33.00
2018-11-04T02:45:07.229Z,35.63
2018-11-04T02:47:44.026Z,31.27
2018-11-04T02:50:20.249Z,28.70
2018-11-04T02:52:56.649Z,34.20
2018-11-04T02:55:38.729Z,39.03
2018-11-04T02:58:17.368Z,32.83
2018-11-04T03:00:51.637Z,26.83
2018-11-04T03:03:25.711Z,36.00
2018-11-04T03:06:01.275Z,36.07
2018-11-04T03:08:33.050Z,30.03
2018-11-04T03:11:07.561Z,33.97
2018-11-04T03:13:41.901Z,34.80
2018-11-04T03:16:15.863Z,33.90
2018-11-04T03:18:51.867Z,31.80
2018-11-04T03:21:23.892Z,30.47
2018-11-04T03:23:58.182Z,27.63
2018-11-04T03:26:32.492Z,27.43
2018-11-04T03:29:04.364Z,32.20
2018-11-04T03:31:40.224Z,28.13
2018-11-04T03:34:14.511Z,28.73
2018-11-04T03:36:49.136Z,30.77
2018-11-04T03:39:25.494Z,25.57
2018-11-04T03:42:02.227Z,27.07
2018-11-04T03:44:37.322Z,25.27
2018-11-04T03:47:11.432Z,26.70
2018-11-04T03:49:42.991Z,32.53
2018-11-04T03:52:17.828Z,31.57
2018-11-04T03:54:51.726Z,29.13
2018-11-04T03:57:30.045Z,27.47
2018-11-04T04:00:04.638Z,34.60
2018-11-04T04:02:42.330Z,31.80
2018-11-04T04:05:17.597Z,33.90
2018-11-04T04:07:52.438Z,34.27
2018-11-04T04:10:26.456Z,29.57
2018-11-04T04:13:00.543Z,32.87
2018-11-04T04:15:37.039Z,28.23
2018-11-04T04:18:11.910Z,33.50
2018-11-04T04:20:44.560Z,27.60
2018-11-04T04:23:19.979Z,29.03
2018-11-04T04:25:58.362Z,34.70
2018-11-04T04:28:34.203Z,43.57
2018-11-04T04:31:08.048Z,44.53
2018-11-04T04:33:44.555Z,47.33
2018-11-04T04:36:18.499Z,48.83
2018-11-04T04:38:54.605Z,45.27
2018-11-04T04:41:28.642Z,49.60
2018-11-04T04:44:03.055Z,46.60
2018-11-04T04:46:36.983Z,45.20
2018-11-04T04:49:11.277Z,42.37
2018-11-04T04:51:45.506Z,45.23
2018-11-04T04:54:26.129Z,43.50
2018-11-04T04:57:07.127Z,46.90
2018-11-04T04:59:43.845Z,37.63
2018-11-04T05:02:19.923Z,37.40
2018-11-04T05:04:52.102Z,39.23
2018-11-04T05:07:32.869Z,36.90
2018-11-04T05:10:09.419Z,31.23
2018-11-04T05:12:48.347Z,39.10
2018-11-04T05:15:24.964Z,35.50
2018-11-04T05:18:01.123Z,33.57
2018-11-04T05:20:35.431Z,34.10
2018-11-04T05:23:09.456Z,41.27
2018-11-04T05:25:45.700Z,43.47
2018-11-04T05:28:23.631Z,41.27
2018-11-04T05:30:57.790Z,47.87
2018-11-04T05:33:29.619Z,40.37
2018-11-04T05:36:04.276Z,40.00
2018-11-04T05:38:38.365Z,41.67
2018-11-04T05:41:12.583Z,39.90
2018-11-04T05:43:51.623Z,39.33
2018-11-04T05:46:25.910Z,41.43
2018-11-04T05:49:00.909Z,43.83
2018-11-04T05:51:37.021Z,44.80
2018-11-04T05:54:14.891Z,46.77
2018-11-04T05:56:49.393Z,45.23
2018-11-04T05:59:24.177Z,44.17
2018-11-04T06:02:04.415Z,41.67
2018-11-04T06:04:42.990Z,42.40
2018-11-04T06:07:19.181Z,44.93
2018-11-04T06:09:53.124Z,39.30
2018-11-04T06:12:27.428Z,36.00
2018-11-04T06:14:59.155Z,39.77
2018-11-04T06:17:35.755Z,38.07
2018-11-04T06:20:14.546Z,39.90
2018-11-04T06:22:50.594Z,42.90
2018-11-04T06:25:28.888Z,38.67
2018-11-04T06:28:03.538Z,37.47
2018-11-04T06:30:38.314Z,35.43
2018-11-04T06:33:12.232Z,34.27
2018-11-04T06:35:47.450Z,33.43
2018-11-04T06:38:22.380Z,36.37
2018-11-04T06:40:56.340Z,37.70
2018-11-04T06:43:32.856Z,37.20
2018-11-04T06:46:07.049Z,33.53
2018-11-04T06:48:41.116Z,39.07
2018-11-04T06:51:15.338Z,39.63
2018-11-04T06:53:47.884Z,35.50
2018-11-04T06:56:23.740Z,37.43
2018-11-04T06:58:57.658Z,38.63
2018-11-04T07:04:17.537Z,33.67
2018-11-04T07:06:51.913Z,38.67
2018-11-04T07:09:26.915Z,36.70
2018-11-04T07:12:01.359Z,28.50
2018-11-04T07:14:35.609Z,30.63
2018-11-04T07:17:11.018Z,33.73
2018-11-04T07:19:46.248Z,32.43
2018-11-04T07:22:22.431Z,38.03
2018-11-04T07:24:56.868Z,29.13
2018-11-04T07:27:33.083Z,35.93
2018-11-04T07:30:08.780Z,33.53
2018-11-04T07:32:46.729Z,33.00
2018-11-04T07:35:21.309Z,31.90
2018-11-04T07:38:00.024Z,33.03
2018-11-04T07:40:40.235Z,28.23
2018-11-04T07:43:21.161Z,24.23
2018-11-04T07:45:56.252Z,22.93
2018-11-04T07:48:31.023Z,17.50
2018-11-04T07:51:06.422Z,16.70
2018-11-04T07:53:41.690Z,19.40
2018-11-04T07:56:16.666Z,17.53
2018-11-04T07:58:53.219Z,17.10
2018-11-04T08:01:27.639Z,20.87
2018-11-04T08:04:04.001Z,17.87
2018-11-04T08:06:42.244Z,18.83
2018-11-04T08:09:21.046Z,17.17
2018-11-04T08:11:57.772Z,19.63
2018-11-04T08:14:30.261Z,23.10
2018-11-04T08:17:04.489Z,20.63
2018-11-04T08:19:44.023Z,22.37
2018-11-04T08:22:18.037Z,19.03
2018-11-04T08:24:52.247Z,20.03
2018-11-04T08:27:26.542Z,17.53
2018-11-04T08:30:01.413Z,17.00
2018-11-04T08:32:37.750Z,15.83
2018-11-04T08:35:08.135Z,17.33
2018-11-04T08:37:36.636Z,19.17
2018-11-04T08:40:05.710Z,20.63
2018-11-04T08:42:34.162Z,16.87
2018-11-04T08:45:03.613Z,20.40
2018-11-04T08:47:37.743Z,15.57
2018-11-04T08:50:07.593Z,16.83
2018-11-04T08:52:36.207Z,18.40
2018-11-04T08:55:05.186Z,19.27
2018-11-04T08:57:33.713Z,18.20
2018-11-04T09:00:02.292Z,19.03
2018-11-04T09:02:32.024Z,18.23
2018-11-04T09:05:00.503Z,15.63
2018-11-04T09:07:32.277Z,17.20
2018-11-04T09:10:00.868Z,20.27
2018-11-04T09:12:33.530Z,16.00
2018-11-04T09:15:02.182Z,15.87
2018-11-04T09:17:30.820Z,18.53
2018-11-04T09:19:59.577Z,17.43
2018-11-04T09:22:32.672Z,19.33
2018-11-04T09:25:01.080Z,16.83
2018-11-04T09:27:36.926Z,21.73
2018-11-04T09:30:06.062Z,20.60
2018-11-04T09:32:34.728Z,23.00
2018-11-04T09:35:03.522Z,23.50
2018-11-04T09:37:39.656Z,21.60
2018-11-04T09:40:13.232Z,25.17
2018-11-04T09:42:46.491Z,24.07
2018-11-04T09:45:15.039Z,25.10
2018-11-04T09:47:57.538Z,25.10
2018-11-04T09:50:32.207Z,25.23
2018-11-04T09:53:01.033Z,24.67
2018-11-04T09:55:29.497Z,28.47
2018-11-04T09:58:02.768Z,24.10
2018-11-04T10:00:31.735Z,25.07
2018-11-04T10:03:10.525Z,23.00
2018-11-04T10:05:53.847Z,27.53
2018-11-04T10:08:28.003Z,26.83
2018-11-04T10:11:02.700Z,25.03
2018-11-04T10:13:39.117Z,24.67
2018-11-04T10:18:59.363Z,25.20
2018-11-04T10:21:36.652Z,27.43
2018-11-04T10:24:14.635Z,26.57
2018-11-04T10:26:49.833Z,26.37
2018-11-04T10:29:19.171Z,25.77
2018-11-04T10:32:10.569Z,25.03
2018-11-04T10:34:44.977Z,29.13
2018-11-04T10:37:13.702Z,27.50
2018-11-04T10:39:51.899Z,26.77
2018-11-04T10:42:33.114Z,27.57
2018-11-04T10:45:09.800Z,27.10
2018-11-04T10:47:46.240Z,26.60
2018-11-04T10:50:20.554Z,25.17
2018-11-04T10:52:55.200Z,26.73
2018-11-04T10:55:29.887Z,25.63
2018-11-04T10:57:58.562Z,25.23
2018-11-04T11:00:38.196Z,28.90
2018-11-04T11:03:14.073Z,22.30
2018-11-04T11:05:48.699Z,26.73
2018-11-04T11:08:24.331Z,26.67
2018-11-04T11:10:58.831Z,27.03
2018-11-04T11:13:37.015Z,26.67
2018-11-04T11:16:11.126Z,25.97
2018-11-04T11:18:46.332Z,20.97
2018-11-04T11:21:21.172Z,20.50
2018-11-04T11:23:55.303Z,23.53
2018-11-04T11:26:29.737Z,22.00
2018-11-04T11:29:05.187Z,29.20
2018-11-04T11:31:39.291Z,22.73
2018-11-04T11:34:13.483Z,27.77
2018-11-04T11:36:51.679Z,23.07
2018-11-04T11:39:25.805Z,22.20
2018-11-04T11:42:01.303Z,25.00
2018-11-04T11:44:39.576Z,25.20
2018-11-04T11:47:17.903Z,23.30
2018-11-04T11:50:05.743Z,24.73
2018-11-04T11:52:50.753Z,23.10
2018-11-04T11:58:01.577Z,25.90
2018-11-04T12:00:36.203Z,26.40
2018-11-04T12:03:16.841Z,24.80
2018-11-04T12:05:53.175Z,23.10
2018-11-04T12:08:29.947Z,22.23
2018-11-04T12:11:12.713Z,24.10
2018-11-04T12:13:44.425Z,25.90
2018-11-04T12:16:20.541Z,23.63
2018-11-04T12:18:59.525Z,22.50
2018-11-04T12:21:34.183Z,26.93
2018-11-04T12:33:09.664Z,21.80
2018-11-04T12:35:43.811Z,21.30
2018-11-04T12:38:16.207Z,23.63
2018-11-04T12:40:54.849Z,22.43
2018-11-04T12:43:29.578Z,21.20
2018-11-04T12:46:04.115Z,24.83
2018-11-04T12:48:38.317Z,23.80
2018-11-04T12:51:12.487Z,23.10
2018-11-04T12:53:47.941Z,22.93
2018-11-04T12:56:22.633Z,22.60
2018-11-04T12:58:56.947Z,23.63
2018-11-04T13:01:31.634Z,21.83
2018-11-04T13:04:07.962Z,25.03
2018-11-04T13:06:44.662Z,23.23
2018-11-04T13:09:19.120Z,22.67
2018-11-04T13:11:55.659Z,27.27
2018-11-04T13:14:30.122Z,21.30
2018-11-04T13:17:11.066Z,22.50
2018-11-04T13:19:45.670Z,20.63
2018-11-04T13:22:22.173Z,24.17
2018-11-04T13:24:58.150Z,23.33
2018-11-04T13:27:32.706Z,23.07
2018-11-04T13:30:07.868Z,23.17
2018-11-04T13:32:42.508Z,20.20
2018-11-04T13:35:18.774Z,21.57
2018-11-04T13:37:53.494Z,20.67
2018-11-04T13:40:25.271Z,22.97
2018-11-04T13:42:59.910Z,20.47
2018-11-04T13:45:36.323Z,23.30
2018-11-04T13:48:10.209Z,19.63
2018-11-04T13:50:44.396Z,21.30
2018-11-04T13:53:19.107Z,20.90
2018-11-04T13:55:53.493Z,23.60
2018-11-04T13:58:27.989Z,19.77
2018-11-04T14:01:09.414Z,21.80
2018-11-04T14:03:44.064Z,21.57
2018-11-04T14:06:20.652Z,21.07
2018-11-04T14:08:55.144Z,20.40
2018-11-04T14:11:30.425Z,21.40
2018-11-04T14:14:08.670Z,21.70
2018-11-04T14:16:44.953Z,22.40
2018-11-04T14:19:19.608Z,20.37
2018-11-04T14:21:57.824Z,21.97
2018-11-04T14:24:32.632Z,24.70
2018-11-04T14:27:07.076Z,23.30
2018-11-04T14:29:39.145Z,28.53
2018-11-04T14:32:17.130Z,34.70
2018-11-04T14:34:51.396Z,34.70
2018-11-04T14:37:25.976Z,32.90
2018-11-04T14:40:00.319Z,33.23
2018-11-04T14:42:34.824Z,32.73
2018-11-04T14:45:10.800Z,33.00
2018-11-04T14:47:47.316Z,32.23
2018-11-04T14:50:22.318Z,40.03
2018-11-04T14:52:56.596Z,40.13
2018-11-04T14:55:31.906Z,39.40
2018-11-04T14:58:05.883Z,38.83
2018-11-04T15:00:40.726Z,42.43
2018-11-04T15:03:15.153Z,40.30
2018-11-04T15:05:49.689Z,40.00
2018-11-04T15:08:24.063Z,41.40
2018-11-04T15:10:58.560Z,42.53
2018-11-04T15:13:33.031Z,42.07
2018-11-04T15:16:09.350Z,45.00
2018-11-04T15:18:43.591Z,42.80
2018-11-04T15:21:15.751Z,50.13
2018-11-04T15:23:55.841Z,45.77
2018-11-04T15:26:29.716Z,45.73
2018-11-04T15:29:05.876Z,44.97
2018-11-04T15:31:40.191Z,45.30
2018-11-04T15:34:15.642Z,42.47
2018-11-04T15:36:49.665Z,45.07
2018-11-04T15:39:23.953Z,45.60
2018-11-04T15:42:02.336Z,46.73
2018-11-04T15:44:34.179Z,42.53
2018-11-04T15:47:06.092Z,51.13
2018-11-04T15:49:40.782Z,49.60
2018-11-04T15:52:15.122Z,47.07
2018-11-04T15:54:49.329Z,51.17
2018-11-04T15:57:23.524Z,54.60
2018-11-04T15:59:57.956Z,56.00
2018-11-04T16:02:32.302Z,53.60
2018-11-04T16:05:06.946Z,52.87
2018-11-04T16:07:40.916Z,54.63
2018-11-04T16:10:16.863Z,54.30
2018-11-04T16:12:48.622Z,53.67
2018-11-04T16:15:23.195Z,63.57
2018-11-04T16:17:57.772Z,57.77
2018-11-04T16:20:32.401Z,55.67
2018-11-04T16:23:06.817Z,52.67
2018-11-04T16:25:41.164Z,56.73
2018-11-04T16:28:17.312Z,63.07
2018-11-04T16:30:53.603Z,63.53
2018-11-04T16:33:29.230Z,62.17
2018-11-04T16:36:05.613Z,64.10
2018-11-04T16:38:39.824Z,57.73
2018-11-04T16:41:15.497Z,56.20
2018-11-04T16:43:50.683Z,58.03
2018-11-04T16:46:29.283Z,56.57
2018-11-04T16:49:04.431Z,52.40
2018-11-04T16:51:39.260Z,51.80
2018-11-04T16:54:15.217Z,58.50
2018-11-04T16:56:49.897Z,57.43
2018-11-04T16:59:26.211Z,54.83
2018-11-04T17:02:01.572Z,56.23
2018-11-04T17:04:39.602Z,58.50
2018-11-04T17:07:15.956Z,60.00
2018-11-04T17:09:53.180Z,56.87
2018-11-04T17:12:27.978Z,59.73
2018-11-04T17:15:03.953Z,61.53
2018-11-04T17:17:40.779Z,57.57
2018-11-04T17:20:16.279Z,66.43
2018-11-04T17:22:51.170Z,61.53
2018-11-04T17:25:26.891Z,62.43
2018-11-04T17:28:00.970Z,67.37
2018-11-04T17:30:35.441Z,64.77
2018-11-04T17:33:13.685Z,64.43
2018-11-04T17:35:49.068Z,59.53
2018-11-04T17:38:17.531Z,60.33
2018-11-04T17:40:53.131Z,59.77
2018-11-04T17:43:29.359Z,65.70
2018-11-04T17:45:58.017Z,70.77
2018-11-04T17:48:36.696Z,79.73
2018-11-04T17:51:12.441Z,80.67
2018-11-04T17:53:41.373Z,67.53
2018-11-04T17:59:08.063Z,70.93
2018-11-04T18:01:44.230Z,69.70
2018-11-04T18:04:30.629Z,68.77
2018-11-04T18:07:06.681Z,75.07
2018-11-04T18:09:36.660Z,72.30
2018-11-04T18:12:17.673Z,77.37
2018-11-04T18:14:56.032Z,66.93
2018-11-04T18:17:36.636Z,68.23
2018-11-04T18:20:18.732Z,66.13
2018-11-04T18:22:54.599Z,71.57
2018-11-04T18:25:37.953Z,73.93
2018-11-04T18:28:20.891Z,79.63
2018-11-04T18:31:02.617Z,68.10
2018-11-04T18:33:37.907Z,69.33
2018-11-04T18:36:18.209Z,73.43
2018-11-04T18:38:57.075Z,76.93
2018-11-04T18:41:35.198Z,75.23
2018-11-04T18:44:07.200Z,72.50
2018-11-04T18:46:43.886Z,77.53
2018-11-04T18:49:24.748Z,71.03
2018-11-04T18:58:12.088Z,70.50
2018-11-04T20:38:28.959Z,58.07
2018-11-04T21:26:58.379Z,67.53
2018-11-04T21:29:35.930Z,66.07
2018-11-04T21:32:10.747Z,67.43
2018-11-04T21:34:49.179Z,70.23
2018-11-04T21:37:27.677Z,67.20
2018-11-04T21:40:07.187Z,61.97
2018-11-04T21:42:48.301Z,61.67
2018-11-04T21:45:23.385Z,63.30
2018-11-04T21:48:01.929Z,64.50
2018-11-04T21:50:40.280Z,71.73
2018-11-04T21:53:21.024Z,69.27
2018-11-04T21:55:57.203Z,58.93
2018-11-04T21:58:31.928Z,60.60
2018-11-04T22:01:06.088Z,54.03
2018-11-04T22:03:42.950Z,58.00
2018-11-04T22:06:17.189Z,55.60
2018-11-04T22:11:52.912Z,50.73
2018-11-04T22:14:27.900Z,47.47
2018-11-04T22:17:02.007Z,46.80
2018-11-04T22:19:36.451Z,44.30
2018-11-04T22:22:11.058Z,47.73
2018-11-04T22:24:45.352Z,45.00
2018-11-04T22:27:19.471Z,44.73
2018-11-04T22:29:53.803Z,45.13
2018-11-04T22:32:36.976Z,47.40
2018-11-04T22:35:15.645Z,44.93
2018-11-04T22:37:52.518Z,42.07
2018-11-04T22:40:26.882Z,45.87
2018-11-04T22:43:01.010Z,48.80
2018-11-04T22:45:37.212Z,49.67
2018-11-04T22:48:12.258Z,43.90
2018-11-04T22:50:50.817Z,44.07
2018-11-04T22:53:29.163Z,46.87
2018-11-04T22:56:05.411Z,49.53
2018-11-04T22:58:39.842Z,44.07
2018-11-04T23:01:14.064Z,47.17
2018-11-04T23:03:56.693Z,47.93
2018-11-04T23:06:31.530Z,45.13
2018-11-04T23:09:08.116Z,41.50
2018-11-04T23:11:43.304Z,40.40
2018-11-04T23:14:19.506Z,41.83
2018-11-04T23:16:58.071Z,46.27
2018-11-04T23:19:36.177Z,48.53
2018-11-04T23:22:10.671Z,41.20
2018-11-04T23:27:27.264Z,44.50
2018-11-04T23:30:01.964Z,42.97
2018-11-04T23:32:40.065Z,46.60
2018-11-04T23:35:16.498Z,51.63
2018-11-04T23:37:50.754Z,55.50
2018-11-04T23:40:27.350Z,53.30
2018-11-04T23:45:39.140Z,55.17
2018-11-04T23:48:13.587Z,58.93
2018-11-04T23:50:54.033Z,59.13
2018-11-04T23:53:28.848Z,57.23
2018-11-04T23:56:03.716Z,61.43
2018-11-04T23:58:48.866Z,57.53
